Time;durP1;ratioP1;P1;durP2;ratioP2;P2;SDS_P1;SDS_P2;PMS_P1;PMS_P2;Temp;Humidity;BMP_temperature;BMP_pressure;BME280_temperature;BME280_humidity;BME280_pressure;Samples;Min_cycle;Max_cycle;Signal;HPM_P1;HPM_P2
2022/01/28 00:02:11;;;;;;;13.17;3.90;;;6.60;99.90;;;;;;4903398;29;20461;-76
2022/01/28 00:04:39;;;;;;;11.17;2.93;;;6.60;99.90;;;;;;4902369;29;20465;-76
2022/01/28 00:07:05;;;;;;;10.40;3.43;;;6.60;99.90;;;;;;4902427;29;21730;-75
2022/01/28 00:09:31;;;;;;;6.53;2.70;;;6.60;99.90;;;;;;4906201;29;20475;-76
2022/01/28 00:11:59;;;;;;;13.43;2.80;;;6.50;99.90;;;;;;4903692;29;20774;-76
2022/01/28 00:14:32;;;;;;;14.60;2.67;;;6.50;99.90;;;;;;4904105;29;20681;-76
2022/01/28 00:38:44;;;;;;;9.50;3.57;;;6.30;99.90;;;;;;4902946;29;20524;-76
2022/01/28 00:41:11;;;;;;;13.20;2.87;;;6.30;99.90;;;;;;4910244;29;20473;-76
2022/01/28 00:43:37;;;;;;;10.00;2.73;;;6.20;99.90;;;;;;4901933;29;20437;-76
2022/01/28 00:46:05;;;;;;;6.57;2.33;;;6.30;99.90;;;;;;4902608;29;20460;-76
2022/01/28 00:48:31;;;;;;;6.30;2.40;;;6.20;99.90;;;;;;4903006;29;20284;-76
2022/01/28 00:50:56;;;;;;;7.93;3.33;;;6.10;99.90;;;;;;4901563;28;20470;-76
2022/01/28 00:53:22;;;;;;;10.17;2.20;;;6.20;99.90;;;;;;4909444;29;20200;-76
2022/01/28 00:55:47;;;;;;;11.10;2.73;;;6.20;99.90;;;;;;4904674;29;20188;-77
2022/01/28 00:58:13;;;;;;;9.20;2.73;;;6.20;99.90;;;;;;4903416;29;20227;-76
2022/01/28 01:00:39;;;;;;;8.57;2.43;;;6.10;99.90;;;;;;4903168;28;20233;-76
2022/01/28 01:03:04;;;;;;;13.73;2.80;;;6.20;99.90;;;;;;4902914;29;20217;-75
2022/01/28 01:05:34;;;;;;;9.67;2.50;;;6.10;99.90;;;;;;4901766;29;20193;-75
2022/01/28 01:08:01;;;;;;;12.47;2.80;;;6.10;99.90;;;;;;4907564;29;20283;-76
2022/01/28 01:10:29;;;;;;;5.83;2.37;;;6.00;99.90;;;;;;4908097;29;20556;-75
2022/01/28 01:12:55;;;;;;;9.00;3.00;;;6.00;99.90;;;;;;4902500;29;20457;-76
2022/01/28 01:15:25;;;;;;;9.77;2.83;;;6.10;99.90;;;;;;4899432;29;20456;-76
2022/01/28 01:18:08;;;;;;;11.67;3.07;;;6.10;99.90;;;;;;4902532;29;20569;-75
2022/01/28 01:20:59;;;;;;;;;;;;;;;;;;;;;
2022/01/28 01:23:15;;;;;;;11.03;2.90;;;6.10;99.90;;;;;;4902814;29;20999;-75
2022/01/28 01:25:54;;;;;;;10.80;2.90;;;6.10;99.90;;;;;;4907539;29;20204;-75
2022/01/28 01:28:23;;;;;;;13.03;2.93;;;6.10;99.90;;;;;;4903423;29;20551;-76
2022/01/28 01:30:51;;;;;;;11.83;2.90;;;6.10;99.90;;;;;;4901020;29;21033;-76
2022/01/28 01:33:18;;;;;;;13.23;4.00;;;6.10;99.90;;;;;;4898516;29;20453;-75
2022/01/28 01:35:44;;;;;;;17.30;3.60;;;6.10;99.90;;;;;;4900808;29;20484;-76
2022/01/28 01:38:10;;;;;;;14.40;4.20;;;6.10;99.90;;;;;;4902703;29;20468;-75
2022/01/28 01:40:52;;;;;;;9.67;2.90;;;6.20;99.90;;;;;;4917641;29;20263;-75
2022/01/28 01:43:39;;;;;;;7.17;2.37;;;6.20;99.90;;;;;;4902716;29;20990;-75
2022/01/28 01:54:29;;;;;;;11.83;2.80;;;6.10;99.90;;;;;;4902337;29;20450;-76
2022/01/28 01:56:55;;;;;;;8.97;2.83;;;6.10;99.90;;;;;;4900483;29;20444;-76
2022/01/28 01:59:21;;;;;;;10.40;3.17;;;6.10;99.90;;;;;;4902489;29;20596;-76
2022/01/28 02:01:47;;;;;;;10.90;2.97;;;6.30;99.90;;;;;;4907191;29;20480;-76
2022/01/28 02:04:13;;;;;;;11.47;2.80;;;6.10;99.90;;;;;;4902732;29;20443;-76
2022/01/28 02:06:40;;;;;;;13.43;3.60;;;6.10;99.90;;;;;;4906432;29;20687;-75
2022/01/28 02:09:07;;;;;;;14.53;3.40;;;6.10;99.90;;;;;;4916521;29;20228;-77
2022/01/28 02:11:33;;;;;;;10.33;2.50;;;6.20;99.90;;;;;;4906812;29;20502;-76
2022/01/28 02:13:59;;;;;;;12.50;3.17;;;6.20;99.90;;;;;;4903914;29;20515;-76
2022/01/28 02:16:27;;;;;;;8.57;2.97;;;6.10;99.90;;;;;;4900745;29;20449;-76
2022/01/28 02:18:55;;;;;;;9.53;2.90;;;6.20;99.90;;;;;;4904098;29;20217;-76
2022/01/28 02:21:23;;;;;;;8.73;3.00;;;6.20;99.90;;;;;;4902251;29;20465;-76
2022/01/28 02:23:54;;;;;;;9.47;2.90;;;6.20;99.90;;;;;;4903235;29;20445;-76
2022/01/28 02:26:19;;;;;;;10.53;2.30;;;6.20;99.90;;;;;;4902054;29;20438;-76
2022/01/28 02:28:50;;;;;;;14.90;5.77;;;6.20;99.90;;;;;;4904153;29;20501;-76
2022/01/28 02:31:24;;;;;;;10.97;3.10;;;6.20;99.90;;;;;;4900476;29;20217;-76
2022/01/28 02:33:52;;;;;;;15.57;3.10;;;6.30;99.90;;;;;;4917747;29;20445;-77
2022/01/28 02:36:18;;;;;;;11.50;3.43;;;6.40;99.90;;;;;;4915406;29;20456;-76
2022/01/28 02:38:44;;;;;;;8.73;2.97;;;6.40;99.90;;;;;;4908580;29;20468;-76
2022/01/28 02:41:12;;;;;;;11.67;3.10;;;6.30;99.90;;;;;;4905531;29;20865;-76
2022/01/28 02:43:47;;;;;;;11.67;2.63;;;6.30;99.90;;;;;;4902247;29;20189;-76
2022/01/28 02:46:17;;;;;;;11.13;2.63;;;6.20;99.90;;;;;;4906280;29;20451;-76
2022/01/28 02:49:00;;;;;;;10.07;3.07;;;6.20;99.90;;;;;;4905870;29;21008;-76
2022/01/28 02:51:25;;;;;;;11.23;2.53;;;6.20;99.90;;;;;;4904541;29;20472;-75
2022/01/28 02:53:57;;;;;;;7.60;2.20;;;6.20;99.90;;;;;;4905023;29;20823;-76
2022/01/28 02:58:52;;;;;;;6.97;2.23;;;6.10;99.90;;;;;;4906059;29;20478;-78
2022/01/28 03:01:21;;;;;;;13.97;4.57;;;6.10;99.90;;;;;;4904178;29;21109;-76
2022/01/28 03:03:48;;;;;;;13.37;3.13;;;6.10;99.90;;;;;;4907215;29;20544;-75
2022/01/28 03:06:15;;;;;;;6.70;2.53;;;6.10;99.90;;;;;;4904155;29;20452;-76
2022/01/28 03:08:46;;;;;;;13.03;2.90;;;6.10;99.90;;;;;;4908277;29;20485;-76
2022/01/28 03:16:28;;;;;;;12.57;2.70;;;6.20;99.90;;;;;;4908026;29;20882;-76
2022/01/28 03:18:58;;;;;;;14.23;3.07;;;6.20;99.90;;;;;;4907562;29;20467;-76
2022/01/28 03:24:00;;;;;;;6.60;2.30;;;6.30;99.90;;;;;;4908253;29;20532;-75
2022/01/28 03:26:29;;;;;;;11.10;2.80;;;6.20;99.90;;;;;;4907162;29;20441;-76
2022/01/28 03:28:55;;;;;;;14.60;2.90;;;6.20;99.90;;;;;;4905953;29;20468;-76
2022/01/28 03:31:21;;;;;;;15.57;3.00;;;6.20;99.90;;;;;;4904997;29;20469;-76
2022/01/28 03:33:51;;;;;;;9.87;2.57;;;6.20;99.90;;;;;;4905588;29;20192;-76
2022/01/28 03:36:19;;;;;;;8.93;2.90;;;6.20;99.90;;;;;;4905406;29;20501;-76
2022/01/28 03:38:48;;;;;;;6.03;2.10;;;6.20;99.90;;;;;;4905749;29;20860;-76
2022/01/28 03:41:16;;;;;;;7.87;3.10;;;6.20;99.90;;;;;;4904716;29;21072;-75
2022/01/28 03:43:44;;;;;;;15.20;2.80;;;6.20;99.90;;;;;;4906929;29;20479;-76
2022/01/28 03:46:13;;;;;;;9.93;2.20;;;6.20;99.90;;;;;;4908396;29;20581;-76
2022/01/28 03:48:39;;;;;;;13.57;3.13;;;6.20;99.90;;;;;;4911658;29;20984;-76
2022/01/28 03:51:06;;;;;;;10.93;2.77;;;6.10;99.90;;;;;;4910274;29;20473;-76
2022/01/28 03:53:31;;;;;;;13.13;3.07;;;6.10;99.90;;;;;;4910792;29;20871;-76
2022/01/28 03:55:58;;;;;;;11.93;2.97;;;6.00;99.90;;;;;;4907916;29;20456;-76
2022/01/28 03:58:24;;;;;;;10.37;3.03;;;6.00;99.90;;;;;;4910049;29;20224;-76
2022/01/28 04:00:50;;;;;;;13.57;2.73;;;6.10;99.90;;;;;;4905420;29;20484;-76
2022/01/28 04:11:31;;;;;;;8.07;2.50;;;6.00;99.90;;;;;;4906397;29;20533;-76
2022/01/28 04:14:11;;;;;;;9.47;2.80;;;6.10;99.90;;;;;;4907061;29;20454;-75
2022/01/28 04:19:21;;;;;;;14.57;3.20;;;6.10;99.90;;;;;;4905020;29;20507;-78
2022/01/28 04:21:48;;;;;;;10.67;2.30;;;6.00;99.90;;;;;;4907254;29;21009;-76
2022/01/28 04:24:14;;;;;;;14.40;3.10;;;6.00;99.90;;;;;;4905367;29;20189;-75
2022/01/28 04:26:40;;;;;;;10.40;3.50;;;6.00;99.90;;;;;;4909305;29;20438;-75
2022/01/28 04:29:07;;;;;;;9.10;2.73;;;6.00;99.90;;;;;;4909608;29;21088;-76
2022/01/28 04:31:33;;;;;;;17.77;3.13;;;6.10;99.90;;;;;;4918564;29;20496;-75
2022/01/28 04:34:02;;;;;;;8.33;2.40;;;6.10;99.90;;;;;;4909979;29;20454;-75
2022/01/28 04:36:35;;;;;;;12.13;2.97;;;6.10;99.90;;;;;;4903723;29;21033;-77
2022/01/28 04:39:11;;;;;;;10.03;3.00;;;6.00;99.90;;;;;;4904345;29;20921;-76
2022/01/28 04:41:53;;;;;;;10.10;2.60;;;6.00;99.90;;;;;;4910770;29;20469;-75
2022/01/28 04:44:35;;;;;;;13.30;2.70;;;6.00;99.90;;;;;;4911156;29;20477;-76
2022/01/28 04:47:08;;;;;;;7.47;2.63;;;6.00;99.90;;;;;;4903888;29;20453;-76
2022/01/28 04:50:26;;;;;;;8.77;2.40;;;6.00;99.90;;;;;;4920236;29;20507;-76
2022/01/28 04:52:53;;;;;;;9.03;2.60;;;6.00;99.90;;;;;;4905779;29;20530;-76
2022/01/28 04:55:44;;;;;;;14.90;2.60;;;6.00;99.90;;;;;;4913283;29;20437;-76
2022/01/28 05:26:59;;;;;;;9.77;2.53;;;6.00;99.90;;;;;;4902541;29;20469;-76
2022/01/28 05:29:27;;;;;;;8.93;3.27;;;5.90;99.90;;;;;;4903836;29;21020;-76
2022/01/28 05:31:53;;;;;;;12.13;2.60;;;6.00;99.90;;;;;;4903257;29;21039;-76
2022/01/28 05:34:19;;;;;;;11.80;3.00;;;6.00;99.90;;;;;;4908852;29;20488;-75
2022/01/28 05:36:45;;;;;;;13.47;2.60;;;6.00;99.90;;;;;;4903668;29;20201;-76
2022/01/28 05:39:10;;;;;;;7.80;2.70;;;6.20;99.90;;;;;;4910389;29;20541;-76
2022/01/28 05:41:36;;;;;;;7.87;2.80;;;6.00;99.90;;;;;;4902630;29;20469;-76
2022/01/28 05:44:04;;;;;;;9.20;2.60;;;6.00;99.90;;;;;;4902275;29;20185;-75
2022/01/28 05:46:33;;;;;;;9.87;3.43;;;6.10;99.90;;;;;;4903764;29;20189;-76
2022/01/28 05:49:00;;;;;;;13.37;2.87;;;6.00;99.90;;;;;;4903662;29;20496;-76
2022/01/28 05:51:26;;;;;;;9.13;3.00;;;6.00;99.90;;;;;;4905438;29;20549;-75
2022/01/28 05:53:53;;;;;;;9.97;2.60;;;6.10;99.90;;;;;;4907622;29;20520;-75
2022/01/28 05:56:20;;;;;;;11.13;2.97;;;6.10;99.90;;;;;;4899093;29;20289;-75
2022/01/28 05:58:46;;;;;;;10.93;3.53;;;6.10;99.90;;;;;;4906295;29;20483;-76
2022/01/28 06:01:11;;;;;;;10.03;2.40;;;6.10;99.90;;;;;;4906806;29;20472;-76
2022/01/28 06:03:39;;;;;;;11.87;3.53;;;6.10;99.90;;;;;;4904582;29;20197;-75
2022/01/28 06:06:04;;;;;;;10.80;3.37;;;6.10;99.90;;;;;;4904246;29;20252;-76
2022/01/28 06:08:34;;;;;;;14.70;3.00;;;6.10;99.90;;;;;;4910600;29;20492;-75
2022/01/28 06:11:02;;;;;;;14.40;3.70;;;6.10;99.90;;;;;;4900524;29;20593;-75
2022/01/28 06:13:27;;;;;;;8.23;2.63;;;6.20;99.90;;;;;;4919071;29;21210;-75
2022/01/28 06:15:55;;;;;;;10.07;2.70;;;6.20;99.90;;;;;;4901823;29;20445;-75
2022/01/28 06:18:21;;;;;;;10.37;3.30;;;6.10;99.90;;;;;;4905668;29;20685;-75
2022/01/28 06:20:46;;;;;;;12.00;2.60;;;6.10;99.90;;;;;;4905582;29;20466;-75
2022/01/28 06:23:12;;;;;;;10.30;3.13;;;6.10;99.90;;;;;;4907623;29;20210;-75
2022/01/28 06:25:39;;;;;;;11.20;3.03;;;6.10;99.90;;;;;;4907018;29;20209;-75
2022/01/28 06:28:05;;;;;;;12.47;2.83;;;6.10;99.90;;;;;;4907899;29;20255;-75
2022/01/28 06:30:30;;;;;;;9.40;3.30;;;6.10;99.90;;;;;;4906697;29;20497;-75
2022/01/28 06:33:22;;;;;;;16.30;2.80;;;6.10;99.90;;;;;;4896793;29;20457;-75
2022/01/28 06:35:47;;;;;;;9.30;2.50;;;6.10;99.90;;;;;;4897938;29;20725;-75
2022/01/28 06:38:14;;;;;;;5.33;2.73;;;6.10;99.90;;;;;;4915621;29;20481;-76
2022/01/28 06:40:40;;;;;;;9.10;3.10;;;6.10;99.90;;;;;;4900509;29;20486;-75
2022/01/28 06:43:11;;;;;;;11.63;2.87;;;6.10;99.90;;;;;;4898581;29;20458;-74
2022/01/28 06:45:39;;;;;;;16.40;3.40;;;6.10;99.90;;;;;;4896451;29;20459;-74
2022/01/28 06:48:07;;;;;;;9.83;2.53;;;6.10;99.90;;;;;;4897920;29;21019;-75
2022/01/28 06:50:33;;;;;;;6.07;2.50;;;6.10;99.90;;;;;;4895261;29;20485;-75
2022/01/28 06:52:59;;;;;;;6.27;3.07;;;6.10;99.90;;;;;;4892560;29;20479;-75
2022/01/28 06:55:24;;;;;;;9.20;2.23;;;6.20;99.90;;;;;;4895492;29;20201;-74
2022/01/28 06:57:50;;;;;;;8.93;3.20;;;6.10;99.90;;;;;;4899243;29;20231;-75
2022/01/28 07:00:16;;;;;;;8.73;2.53;;;6.10;99.90;;;;;;4900050;29;20216;-75
2022/01/28 07:02:41;;;;;;;13.97;3.00;;;6.20;99.90;;;;;;4905799;29;20204;-75
2022/01/28 07:05:10;;;;;;;16.40;3.60;;;6.20;99.90;;;;;;4881111;29;20280;-75
2022/01/28 07:07:36;;;;;;;8.37;3.20;;;6.20;99.90;;;;;;4892463;29;20243;-74
2022/01/28 07:10:03;;;;;;;10.83;2.63;;;6.20;99.90;;;;;;4902413;28;20452;-75
2022/01/28 07:12:29;;;;;;;12.77;2.87;;;6.20;99.90;;;;;;4899682;29;20501;-74
2022/01/28 07:14:54;;;;;;;13.30;2.70;;;6.20;99.90;;;;;;4905849;29;20452;-74
2022/01/28 07:17:20;;;;;;;7.50;2.50;;;6.20;99.90;;;;;;4900179;29;20617;-77
2022/01/28 07:19:46;;;;;;;9.90;2.90;;;6.20;99.90;;;;;;4903540;29;20235;-75
2022/01/28 07:22:11;;;;;;;7.60;3.10;;;6.20;99.90;;;;;;4898176;29;20315;-74
2022/01/28 07:24:37;;;;;;;11.87;3.10;;;6.10;99.90;;;;;;4902675;29;20189;-75
2022/01/28 07:27:03;;;;;;;7.80;2.70;;;6.10;99.90;;;;;;4902758;29;20202;-75
2022/01/28 07:29:31;;;;;;;8.67;2.47;;;6.10;99.90;;;;;;4899584;29;20217;-75
2022/01/28 07:31:56;;;;;;;8.70;3.40;;;6.10;99.90;;;;;;4912394;29;20232;-75
2022/01/28 07:34:23;;;;;;;11.93;3.10;;;6.10;99.90;;;;;;4899804;29;20456;-74
2022/01/28 07:36:49;;;;;;;19.83;3.80;;;6.10;99.90;;;;;;4899739;29;21441;-74
2022/01/28 07:39:14;;;;;;;12.07;3.50;;;6.00;99.90;;;;;;4903881;29;20492;-73
2022/01/28 07:41:40;;;;;;;12.93;4.47;;;6.00;99.90;;;;;;4900794;29;20645;-74
2022/01/28 07:44:06;;;;;;;13.73;3.40;;;6.00;99.90;;;;;;4904290;29;20650;-75
2022/01/28 07:46:33;;;;;;;10.93;3.27;;;6.00;99.90;;;;;;4902434;29;20186;-75
2022/01/28 07:48:59;;;;;;;9.03;3.50;;;6.00;99.90;;;;;;4898054;29;20477;-75
2022/01/28 07:51:25;;;;;;;10.30;3.10;;;5.90;99.90;;;;;;4898010;29;20530;-75
2022/01/28 07:53:51;;;;;;;9.13;3.10;;;5.90;99.90;;;;;;4899630;29;20981;-74
2022/01/28 07:56:16;;;;;;;13.67;3.10;;;5.90;99.90;;;;;;4904623;29;20214;-75
2022/01/28 07:58:42;;;;;;;10.33;3.83;;;5.90;99.90;;;;;;4898318;29;20560;-75
2022/01/28 08:01:08;;;;;;;9.77;3.80;;;5.90;99.90;;;;;;4896842;29;20248;-75
2022/01/28 08:03:34;;;;;;;16.17;4.13;;;5.90;99.90;;;;;;4899510;29;20201;-75
2022/01/28 08:05:59;;;;;;;13.73;3.20;;;5.90;99.90;;;;;;4903001;29;20208;-75
2022/01/28 08:08:25;;;;;;;10.33;3.13;;;5.90;99.90;;;;;;4901862;29;20228;-75
2022/01/28 08:10:52;;;;;;;10.70;3.40;;;5.90;99.90;;;;;;4899066;29;20221;-74
2022/01/28 08:13:21;;;;;;;13.63;3.93;;;5.90;99.90;;;;;;4899598;29;20609;-75
2022/01/28 08:15:46;;;;;;;11.40;4.60;;;5.90;99.90;;;;;;4903846;29;20517;-75
2022/01/28 08:18:12;;;;;;;10.90;3.90;;;6.00;99.90;;;;;;4916256;29;20488;-74
2022/01/28 08:20:40;;;;;;;12.90;2.90;;;6.00;99.90;;;;;;4905890;29;20236;-75
2022/01/28 08:23:06;;;;;;;12.17;3.90;;;6.00;99.90;;;;;;4907085;29;20264;-75
2022/01/28 08:25:34;;;;;;;12.97;4.33;;;6.00;99.90;;;;;;4906212;29;20463;-74
2022/01/28 08:28:01;;;;;;;15.77;3.90;;;5.90;99.90;;;;;;4908616;29;20313;-74
2022/01/28 08:30:29;;;;;;;10.80;3.40;;;5.90;99.90;;;;;;4906450;29;20501;-74
2022/01/28 08:32:55;;;;;;;17.90;4.40;;;5.90;99.90;;;;;;4900985;29;20516;-75
2022/01/28 08:35:28;;;;;;;9.70;3.47;;;5.90;99.90;;;;;;4902504;29;20481;-74
2022/01/28 08:37:56;;;;;;;10.10;3.27;;;5.90;99.90;;;;;;4903156;29;20921;-74
2022/01/28 08:40:22;;;;;;;14.50;3.47;;;5.90;99.90;;;;;;4915860;29;21265;-74
2022/01/28 08:42:48;;;;;;;11.57;3.23;;;5.90;99.90;;;;;;4904127;29;20456;-73
2022/01/28 08:45:14;;;;;;;10.97;3.57;;;5.90;99.90;;;;;;4899169;29;21064;-75
2022/01/28 08:47:39;;;;;;;17.73;4.10;;;5.90;99.90;;;;;;4901118;29;20264;-74
2022/01/28 08:50:06;;;;;;;15.07;3.73;;;5.90;99.90;;;;;;4899704;29;20665;-74
2022/01/28 08:52:34;;;;;;;13.60;3.80;;;6.00;99.90;;;;;;4899667;29;20186;-74
2022/01/28 08:55:00;;;;;;;15.30;3.57;;;5.90;99.90;;;;;;4900798;29;22583;-75
2022/01/28 08:57:25;;;;;;;12.60;4.13;;;6.00;99.90;;;;;;4900467;29;20548;-74
2022/01/28 08:59:54;;;;;;;12.00;3.33;;;6.00;99.90;;;;;;4895004;29;21002;-74
2022/01/28 09:02:21;;;;;;;14.93;3.63;;;6.10;99.90;;;;;;4894085;29;21009;-74
2022/01/28 09:04:48;;;;;;;11.77;2.83;;;6.10;99.90;;;;;;4895333;29;20508;-74
2022/01/28 09:07:13;;;;;;;14.17;3.60;;;6.10;99.90;;;;;;4901270;29;21257;-74
2022/01/28 09:09:48;;;;;;;17.93;3.70;;;6.10;99.90;;;;;;4894671;29;20519;-75
2022/01/28 09:14:58;;;;;;;13.10;4.10;;;6.10;99.90;;;;;;4894526;29;20459;-74
2022/01/28 09:17:27;;;;;;;14.27;4.20;;;6.20;99.90;;;;;;4911950;29;20461;-73
2022/01/28 09:19:53;;;;;;;18.30;3.97;;;6.20;99.90;;;;;;4900199;29;20693;-74
2022/01/28 09:22:18;;;;;;;14.23;3.97;;;6.20;99.90;;;;;;4900298;29;20524;-74
2022/01/28 09:24:44;;;;;;;9.23;3.57;;;6.20;99.90;;;;;;4894673;29;20905;-74
2022/01/28 09:27:10;;;;;;;10.97;3.90;;;6.30;99.90;;;;;;4897211;29;20574;-74
2022/01/28 09:29:35;;;;;;;8.93;3.20;;;6.30;99.90;;;;;;4896279;29;20217;-75
2022/01/28 09:32:01;;;;;;;14.83;3.93;;;6.40;99.90;;;;;;4911320;29;20233;-74
2022/01/28 09:34:27;;;;;;;12.43;2.93;;;6.40;99.90;;;;;;4898597;29;20265;-74
2022/01/28 09:36:53;;;;;;;11.93;3.53;;;6.40;99.90;;;;;;4899789;29;20201;-73
2022/01/28 09:39:20;;;;;;;12.70;3.23;;;6.40;99.90;;;;;;4897715;29;20484;-74
2022/01/28 09:41:51;;;;;;;9.57;3.50;;;6.50;99.90;;;;;;4897264;29;20235;-73
2022/01/28 09:44:18;;;;;;;9.23;3.70;;;6.50;99.90;;;;;;4910381;29;20464;-74
2022/01/28 09:46:44;;;;;;;9.60;3.57;;;6.50;99.90;;;;;;4910304;29;20442;-74
2022/01/28 09:49:11;;;;;;;11.63;3.40;;;6.60;99.90;;;;;;4898298;29;20483;-74
2022/01/28 09:51:37;;;;;;;14.23;2.93;;;6.50;99.90;;;;;;4897829;29;20576;-73
2022/01/28 09:54:03;;;;;;;9.87;2.97;;;6.60;99.90;;;;;;4893697;29;21107;-74
2022/01/28 09:56:30;;;;;;;13.10;3.20;;;6.60;99.90;;;;;;4896932;29;20242;-74
2022/01/28 09:58:56;;;;;;;11.50;3.10;;;6.60;99.90;;;;;;4893813;29;20259;-74
2022/01/28 10:01:25;;;;;;;16.03;2.87;;;6.60;99.90;;;;;;4897250;29;20473;-74
2022/01/28 10:04:07;;;;;;;9.37;2.93;;;6.70;99.90;;;;;;4890881;29;20213;-74
2022/01/28 10:06:34;;;;;;;10.30;3.33;;;6.70;99.90;;;;;;4888833;29;20571;-74
2022/01/28 10:09:10;;;;;;;8.20;2.77;;;6.80;99.90;;;;;;4892055;29;21082;-74
2022/01/28 10:11:37;;;;;;;10.90;3.13;;;6.80;99.90;;;;;;4892782;29;20579;-74
2022/01/28 10:14:20;;;;;;;12.77;3.30;;;6.90;99.90;;;;;;4889351;29;20452;-73
2022/01/28 10:17:01;;;;;;;8.77;3.40;;;6.90;99.90;;;;;;4890734;29;20539;-74
2022/01/28 10:19:37;;;;;;;11.53;3.53;;;7.00;99.90;;;;;;4892068;29;20476;-74
2022/01/28 10:22:17;;;;;;;9.97;3.00;;;7.00;99.90;;;;;;4896161;29;20481;-74
2022/01/28 10:24:42;;;;;;;11.37;3.10;;;7.10;99.90;;;;;;4889270;29;20459;-74
2022/01/28 10:27:09;;;;;;;10.43;3.00;;;7.10;99.90;;;;;;4906564;29;20450;-73
2022/01/28 10:29:40;;;;;;;14.43;3.67;;;7.20;99.90;;;;;;4890720;29;20212;-74
2022/01/28 10:32:10;;;;;;;13.53;2.93;;;7.30;99.90;;;;;;4893577;29;20744;-74
2022/01/28 10:34:37;;;;;;;8.13;2.77;;;7.30;99.90;;;;;;4904585;29;20555;-73
2022/01/28 10:37:25;;;;;;;6.57;2.47;;;7.40;99.90;;;;;;4889068;29;20498;-74
2022/01/28 10:40:11;;;;;;;10.93;4.47;;;7.40;99.90;;;;;;4892252;29;20473;-74
2022/01/28 10:42:53;;;;;;;11.23;3.10;;;7.50;99.90;;;;;;4904323;29;21203;-73
2022/01/28 10:45:28;;;;;;;10.37;3.20;;;7.60;99.90;;;;;;4897928;29;20452;-74
2022/01/28 10:47:55;;;;;;;7.17;2.63;;;7.60;99.90;;;;;;4907016;29;20501;-74
2022/01/28 10:50:24;;;;;;;7.17;2.17;;;7.70;99.90;;;;;;4898380;29;20441;-73
2022/01/28 10:53:06;;;;;;;9.20;2.60;;;7.70;99.90;;;;;;4910260;29;20962;-74
2022/01/28 10:55:34;;;;;;;12.37;3.00;;;7.80;99.90;;;;;;4894052;29;20456;-73
2022/01/28 10:58:01;;;;;;;13.00;2.70;;;7.90;99.90;;;;;;4891661;29;20475;-74
2022/01/28 11:00:36;;;;;;;12.83;3.10;;;8.00;99.90;;;;;;4893516;29;20493;-73
2022/01/28 11:03:06;;;;;;;12.03;2.70;;;8.00;99.90;;;;;;4896560;29;20488;-74
2022/01/28 11:05:34;;;;;;;7.00;2.70;;;8.00;99.90;;;;;;4902510;29;20822;-75
2022/01/28 11:08:01;;;;;;;9.77;2.53;;;8.10;99.90;;;;;;4904953;29;20495;-76
2022/01/28 11:10:27;;;;;;;11.70;2.90;;;8.20;99.90;;;;;;4902497;29;20886;-75
2022/01/28 11:12:53;;;;;;;11.27;2.90;;;8.30;99.90;;;;;;4899728;29;20522;-74
2022/01/28 11:15:20;;;;;;;12.10;3.53;;;8.40;99.90;;;;;;4900218;29;20489;-75
2022/01/28 11:17:50;;;;;;;9.00;2.63;;;8.60;99.90;;;;;;4901205;29;20464;-72
2022/01/28 11:20:22;;;;;;;7.80;2.30;;;8.60;99.90;;;;;;4902056;29;22194;-73
2022/01/28 11:23:15;;;;;;;6.33;2.83;;;8.60;99.90;;;;;;4908907;29;20473;-73
2022/01/28 11:25:43;;;;;;;10.90;3.53;;;8.60;99.90;;;;;;4902421;29;20857;-74
2022/01/28 11:28:11;;;;;;;7.93;2.50;;;8.70;99.90;;;;;;4912719;29;20473;-73
2022/01/28 11:30:46;;;;;;;11.80;2.80;;;8.70;99.90;;;;;;4896605;29;20852;-74
2022/01/28 11:33:13;;;;;;;6.90;2.40;;;8.80;99.90;;;;;;4898596;29;20449;-75
2022/01/28 11:35:45;;;;;;;9.70;2.70;;;8.80;99.90;;;;;;4905780;29;20465;-75
2022/01/28 11:38:26;;;;;;;9.33;2.30;;;8.90;99.90;;;;;;4900265;29;20471;-75
2022/01/28 11:40:59;;;;;;;12.37;2.90;;;9.00;99.90;;;;;;4899150;29;20485;-76
2022/01/28 11:43:27;;;;;;;12.10;3.10;;;9.00;99.90;;;;;;4896144;29;20492;-76
2022/01/28 11:46:16;;;;;;;7.07;2.60;;;9.10;99.90;;;;;;4896692;29;20544;-76
2022/01/28 11:49:20;;;;;;;9.07;2.67;;;9.20;99.90;;;;;;4904768;29;20555;-75
2022/01/28 11:51:46;;;;;;;9.00;2.80;;;9.30;99.90;;;;;;4902783;29;20480;-76
2022/01/28 11:54:18;;;;;;;8.97;2.60;;;9.40;99.90;;;;;;4898857;29;20448;-75
2022/01/28 11:56:56;;;;;;;9.97;2.73;;;9.60;99.90;;;;;;4891904;29;20452;-77
2022/01/28 11:59:25;;;;;;;12.67;2.97;;;9.80;99.90;;;;;;4896538;29;23202;-74
2022/01/28 12:01:54;;;;;;;11.47;4.30;;;10.00;99.90;;;;;;4897549;29;20499;-74
2022/01/28 12:04:31;;;;;;;7.90;2.50;;;10.30;99.90;;;;;;4891763;29;20453;-75
2022/01/28 12:07:14;;;;;;;9.50;3.23;;;10.50;99.90;;;;;;4912386;29;21713;-75
2022/01/28 12:09:48;;;;;;;11.83;2.60;;;10.50;99.90;;;;;;4896691;29;20542;-75
2022/01/28 12:12:20;;;;;;;10.00;2.90;;;10.50;99.90;;;;;;4899844;29;20480;-75
2022/01/28 12:14:54;;;;;;;7.17;2.97;;;10.40;99.90;;;;;;4898065;29;20538;-75
2022/01/28 12:17:36;;;;;;;10.33;3.20;;;10.30;99.90;;;;;;4895010;29;21619;-75
2022/01/28 12:20:13;;;;;;;8.87;2.60;;;10.40;99.90;;;;;;4898683;29;20516;-75
2022/01/28 12:23:10;;;;;;;10.67;3.00;;;10.30;99.90;;;;;;4911339;29;21000;-75
2022/01/28 12:25:36;;;;;;;10.23;3.30;;;10.40;99.90;;;;;;4899173;29;20452;-75
2022/01/28 12:28:19;;;;;;;8.57;2.33;;;10.40;99.90;;;;;;4894493;29;20469;-74
2022/01/28 12:30:58;;;;;;;6.80;2.97;;;10.40;99.90;;;;;;4895727;29;23653;-75
2022/01/28 12:33:25;;;;;;;10.70;3.23;;;10.40;99.90;;;;;;4896308;29;20449;-75
2022/01/28 12:35:55;;;;;;;5.90;2.37;;;10.40;99.90;;;;;;4901001;29;20445;-75
2022/01/28 12:38:24;;;;;;;5.03;2.27;;;10.50;99.90;;;;;;4903003;29;20770;-75
2022/01/28 12:40:52;;;;;;;7.63;2.50;;;10.80;99.90;;;;;;4907992;29;20488;-75
2022/01/28 12:43:25;;;;;;;5.70;2.47;;;11.80;99.90;;;;;;4891748;29;20465;-77
2022/01/28 12:46:03;;;;;;;5.27;2.20;;;13.50;99.90;;;;;;4892864;29;20452;-76
2022/01/28 12:48:29;;;;;;;5.67;2.53;;;15.60;99.90;;;;;;4893040;29;20488;-76
2022/01/28 12:50:56;;;;;;;7.10;2.93;;;17.50;99.90;;;;;;4894130;29;20516;-78
2022/01/28 12:53:35;;;;;;;7.30;2.83;;;19.40;99.90;;;;;;4893843;29;20201;-77
2022/01/28 12:56:01;;;;;;;11.73;3.53;;;20.80;95.60;;;;;;4897053;29;20496;-77
2022/01/28 12:58:48;;;;;;;6.70;3.20;;;22.00;91.50;;;;;;4907624;29;20565;-77
2022/01/28 13:01:15;;;;;;;7.90;3.17;;;23.10;84.00;;;;;;4894724;29;20495;-77
2022/01/28 13:04:01;;;;;;;16.23;3.97;;;24.00;79.70;;;;;;4897691;29;20464;-77
2022/01/28 13:08:24;;;;;;;8.60;3.20;;;23.40;73.90;;;;;;4890625;29;20468;-77
2022/01/28 13:09:23;;;;;;;11.37;3.80;;;22.00;73.50;;;;;;4885046;29;20492;-77
2022/01/28 13:11:54;;;;;;;7.87;3.53;;;20.00;79.50;;;;;;4897352;29;20910;-76
2022/01/28 13:14:32;;;;;;;8.03;2.63;;;18.80;84.80;;;;;;4895632;29;20493;-77
2022/01/28 13:16:58;;;;;;;12.57;3.60;;;17.90;89.20;;;;;;4894067;29;20512;-77
2022/01/28 13:19:24;;;;;;;8.40;3.50;;;17.30;91.30;;;;;;4899388;29;20572;-78
2022/01/28 13:21:50;;;;;;;11.67;3.27;;;16.80;92.10;;;;;;4896770;29;20480;-77
2022/01/28 13:24:23;;;;;;;10.37;3.83;;;16.10;94.20;;;;;;4895868;29;20670;-77
2022/01/28 13:27:07;;;;;;;11.27;3.53;;;15.50;96.50;;;;;;4892537;29;21049;-78
2022/01/28 13:29:51;;;;;;;9.70;3.63;;;14.70;98.70;;;;;;4890202;29;20465;-77
2022/01/28 13:32:28;;;;;;;10.37;3.00;;;14.10;99.90;;;;;;4895373;29;20488;-77
2022/01/28 13:34:59;;;;;;;15.03;3.87;;;13.30;99.90;;;;;;4891370;29;20450;-81
2022/01/28 13:37:38;;;;;;;9.40;2.77;;;12.90;99.90;;;;;;4891429;29;20451;-78
2022/01/28 13:40:26;;;;;;;8.33;4.23;;;12.50;99.90;;;;;;4914043;29;21073;-75
2022/01/28 13:42:58;;;;;;;11.33;2.93;;;12.30;99.90;;;;;;4893454;29;20517;-75
2022/01/28 13:45:28;;;;;;;8.83;3.37;;;12.10;99.90;;;;;;4893495;29;20450;-74
2022/01/28 13:47:54;;;;;;;11.50;2.50;;;11.80;99.90;;;;;;4907900;29;20469;-75
2022/01/28 13:50:38;;;;;;;8.50;4.03;;;11.70;99.90;;;;;;4896618;29;20468;-75
2022/01/28 13:53:20;;;;;;;8.27;2.67;;;11.50;99.90;;;;;;4900585;29;20200;-76
2022/01/28 13:55:47;;;;;;;14.97;3.50;;;11.50;99.90;;;;;;4913823;29;20453;-75
2022/01/28 13:58:14;;;;;;;7.80;2.63;;;11.30;99.90;;;;;;4908875;29;20527;-77
2022/01/28 14:00:43;;;;;;;13.03;4.43;;;11.20;99.90;;;;;;4921041;29;21167;-77
2022/01/28 14:03:19;;;;;;;13.80;3.23;;;11.00;99.90;;;;;;4929631;29;20456;-76
2022/01/28 14:06:03;;;;;;;8.73;2.83;;;10.90;99.90;;;;;;4928506;29;21060;-77
2022/01/28 14:08:48;;;;;;;18.47;3.80;;;10.80;99.90;;;;;;4913500;29;20482;-78
2022/01/28 14:11:44;;;;;;;9.13;2.80;;;10.60;99.90;;;;;;4901625;29;20485;-73
2022/01/28 14:14:25;;;;;;;9.97;2.93;;;10.50;99.90;;;;;;4897710;29;21690;-76
2022/01/28 14:17:02;;;;;;;13.97;3.50;;;10.30;99.90;;;;;;4893369;29;20463;-75
2022/01/28 14:19:32;;;;;;;13.93;3.93;;;10.20;99.90;;;;;;4894519;29;20543;-75
2022/01/28 14:21:59;;;;;;;11.63;2.93;;;10.10;99.90;;;;;;4895360;29;20597;-76
2022/01/28 14:24:28;;;;;;;8.47;3.50;;;9.90;99.90;;;;;;4895623;29;20450;-77
2022/01/28 14:32:18;;;;;;;15.03;3.80;;;9.70;99.90;;;;;;4881384;29;20480;-74
2022/01/28 14:34:48;;;;;;;14.20;3.40;;;9.60;99.90;;;;;;4894224;29;20976;-74